Observation data for Slaton on 12/07/2018      Previous  Date       Current Mesonet Observations  Soil Data  Daily Summary Page  Observations in Plain Language
KSLS 070600Z 03005KT 00/M04 A3029 RMK A01 T00021040  RH  074%=      5-min Rain = 0
KSLS 070605Z 03006KT 00/M04 A3029 RMK A01 T00031041  RH  074%=      5-min Rain = 0
KSLS 070610Z 03005KT 00/M04 A3029 RMK A01 T00021041  RH  074%=      5-min Rain = 0
KSLS 070615Z 08002KT 00/M04 A303 RMK A01 T00021041  RH  074%=      5-min Rain = 0
KSLS 070620Z 05003KT 00/M04 A303 RMK A01 T00021042  RH  073%=      5-min Rain = 0
KSLS 070625Z 03003KT 00/M04 A303 RMK A01 T00021041  RH  073%=      5-min Rain = 0
KSLS 070630Z 02002KT 00/M04 A3031 RMK A01 T00021041  RH  073%=      5-min Rain = 0
KSLS 070635Z 02004KT 00/M04 A303 RMK A01 T00011042  RH  074%=      5-min Rain = 0
KSLS 070640Z 01002KT 00/M04 A303 RMK A01 T00011042  RH  074%=      5-min Rain = 0
KSLS 070645Z 02002KT 00/M04 A3031 RMK A01 T00011042  RH  074%=      5-min Rain = 0
KSLS 070650Z 02002KT 00/04 A3031 RMK A01 T00000-42  RH  074%=      5-min Rain = 0
KSLS 070655Z 02002KT 00/04 A3031 RMK A01 T00000-42  RH  074%=      5-min Rain = 0
KSLS 070700Z 02001KT 00/04 A3032 RMK A01 T00000-42  RH  074%=      5-min Rain = 0
KSLS 070705Z 00003KT 00/04 A3031 RMK A01 T00-00-42  RH  074%=      5-min Rain = 0
KSLS 070710Z 35003KT 00/04 A3031 RMK A01 T00-00-41  RH  075%=      5-min Rain = 0
KSLS 070715Z 00002KT 00/04 A3031 RMK A01 T00000-41  RH  075%=      5-min Rain = 0
KSLS 070720Z 36002KT 00/M04 A3032 RMK A01 T00011042  RH  074%=      5-min Rain = 0
KSLS 070725Z 36003KT 00/M04 A3031 RMK A01 T00011042  RH  074%=      5-min Rain = 0
KSLS 070730Z 01003KT 00/M04 A3031 RMK A01 T00021042  RH  073%=      5-min Rain = 0
KSLS 070735Z 35004KT 00/M04 A3031 RMK A01 T00011042  RH  073%=      5-min Rain = 0
KSLS 070740Z 36005KT 00/M04 A303 RMK A01 T00021042  RH  073%=      5-min Rain = 0
KSLS 070745Z 35004KT 00/M04 A3031 RMK A01 T00021042  RH  073%=      5-min Rain = 0
KSLS 070750Z 35004KT 00/M04 A3031 RMK A01 T00021042  RH  073%=      5-min Rain = 0
KSLS 070755Z 00004KT 00/M04 A303 RMK A01 T00021042  RH  073%=      5-min Rain = 0
KSLS 070800Z 00005KT 00/M04 A303 RMK A01 T00031042  RH  073%=      5-min Rain = 0
KSLS 070805Z 00006KT 00/M04 A3029 RMK A01 T00031043  RH  072%=      5-min Rain = 0
KSLS 070810Z 01005KT 00/M04 A3029 RMK A01 T00031043  RH  072%=      5-min Rain = 0
KSLS 070815Z 01005KT 00/M04 A3029 RMK A01 T00031043  RH  072%=      5-min Rain = 0
KSLS 070820Z 01005KT 00/M04 A3029 RMK A01 T00031043  RH  073%=      5-min Rain = 0
KSLS 070825Z 36004KT 00/M04 A303 RMK A01 T00021043  RH  073%=      5-min Rain = 0
KSLS 070830Z 33005KT 00/M04 A3031 RMK A01 T00031042  RH  073%=      5-min Rain = 0
KSLS 070835Z 32004KT 00/M04 A3031 RMK A01 T00031042  RH  073%=      5-min Rain = 0
KSLS 070840Z 33005KT 00/M04 A3031 RMK A01 T00031042  RH  073%=      5-min Rain = 0
KSLS 070845Z 33005KT 00/M04 A3031 RMK A01 T00031042  RH  072%=      5-min Rain = 0
KSLS 070850Z 33004KT 00/M04 A3031 RMK A01 T00031042  RH  073%=      5-min Rain = 0
KSLS 070855Z 33005KT 00/M04 A3031 RMK A01 T00031042  RH  072%=      5-min Rain = 0
KSLS 070900Z 32005KT 00/M04 A3031 RMK A01 T00041042  RH  072%=      5-min Rain = 0
KSLS 070905Z 33005KT 00/M04 A3031 RMK A01 T00041041  RH  073%=      5-min Rain = 0
KSLS 070910Z 34005KT 01/M04 A3031 RMK A01 T00051041  RH  072%=      5-min Rain = 0
KSLS 070915Z 33004KT 01/M04 A3031 RMK A01 T00051040  RH  072%=      5-min Rain = 0
KSLS 070920Z 34005KT 01/M04 A3031 RMK A01 T00051040  RH  072%=      5-min Rain = 0
KSLS 070925Z 34006KT 01/M04 A3031 RMK A01 T00051039  RH  073%=      5-min Rain = 0
KSLS 070930Z 33006KT 00/M03 A3031 RMK A01 T00041034  RH  077%=      5-min Rain = 0
KSLS 070935Z 33004KT 00/M03 A3031 RMK A01 T00011028  RH  082%=      5-min Rain = 0
KSLS 070940Z 34003KT 00/03 A303 RMK A01 T00000-25  RH  084%=      5-min Rain = 0
KSLS 070945Z 33003KT 00/M03 A3031 RMK A01 T00011025  RH  084%=      5-min Rain = 0.02
KSLS 070950Z 35004KT 00/M02 A303 RMK A01 T00011024  RH  084%=      5-min Rain = 0
KSLS 070955Z 31003KT 00/M02 A303 RMK A01 T00011021  RH  087%=      5-min Rain = 0
KSLS 071000Z 04004KT 00/M02 A3029 RMK A01 T00011021  RH  086%=      5-min Rain = 0
KSLS 071005Z 01006KT 00/M02 A3028 RMK A01 T00011021  RH  086%=      5-min Rain = 0.03
KSLS 071010Z 02005KT M00/M02 A3028 RMK A01 T10011018  RH  089%=      5-min Rain = 0.02
KSLS 071015Z 06004KT M00/M02 A3027 RMK A01 T10021017  RH  090%=      5-min Rain = 0.01
KSLS 071020Z 07008KT M00/M02 A3025 RMK A01 T10021019  RH  090%=      5-min Rain = 0.01
KSLS 071025Z 07013KT M00/M02 A3021 RMK A01 T10031018  RH  090%=      5-min Rain = 0.02
KSLS 071030Z 05010G17KT M00/M02 A3018 RMK A01 T10041017  RH  092%=      5-min Rain = 0.01
KSLS 071035Z 08011KT M00/M02 A302 RMK A01 T10041018  RH  091%=      5-min Rain = 0
KSLS 071040Z 07009KT M00/M02 A3021 RMK A01 T10041019  RH  091%=      5-min Rain = 0
KSLS 071045Z 04005KT M01/M02 A3024 RMK A01 T10051021  RH  090%=      5-min Rain = 0
KSLS 071050Z 27003KT M00/M02 A3027 RMK A01 T10041021  RH  089%=      5-min Rain = 0
KSLS 071055Z 24002KT M00/M02 A3027 RMK A01 T10031021  RH  089%=      5-min Rain = 0
KSLS 071100Z 23002KT M00/M02 A3028 RMK A01 T10031022  RH  088%=      5-min Rain = 0
KSLS 071105Z 19002KT M00/M02 A3028 RMK A01 T10031022  RH  088%=      5-min Rain = 0
KSLS 071110Z 20002KT M00/M02 A3028 RMK A01 T10031023  RH  087%=      5-min Rain = 0
KSLS 071115Z 16001KT M00/M02 A3028 RMK A01 T10031023  RH  087%=      5-min Rain = 0
KSLS 071120Z 13002KT M00/M02 A3028 RMK A01 T10031021  RH  088%=      5-min Rain = 0
KSLS 071125Z 11001KT M00/M02 A3029 RMK A01 T10031021  RH  089%=      5-min Rain = 0
KSLS 071130Z 08002KT M00/M02 A3028 RMK A01 T10031020  RH  089%=      5-min Rain = 0
KSLS 071135Z 08002KT M00/M02 A3028 RMK A01 T10041019  RH  090%=      5-min Rain = 0
KSLS 071140Z 06002KT M00/M02 A3028 RMK A01 T10041018  RH  091%=      5-min Rain = 0
KSLS 071145Z 02001KT M00/M02 A3029 RMK A01 T10031017  RH  091%=      5-min Rain = 0
KSLS 071150Z 33002KT M00/M02 A3029 RMK A01 T10031017  RH  092%=      5-min Rain = 0
KSLS 071155Z 30002KT M00/M02 A3029 RMK A01 T10031016  RH  092%=      5-min Rain = 0
KSLS 071200Z 31002KT M00/M02 A3029 RMK A01 T10031016  RH  092%=      5-min Rain = 0
KSLS 071205Z 31002KT M00/M02 A3029 RMK A01 T10031017  RH  091%=      5-min Rain = 0
KSLS 071210Z 35002KT M00/M02 A3029 RMK A01 T10021018  RH  091%=      5-min Rain = 0
KSLS 071215Z 01003KT M00/M02 A3028 RMK A01 T10021016  RH  091%=      5-min Rain = 0
KSLS 071220Z 02004KT M00/M02 A3028 RMK A01 T10021016  RH  091%=      5-min Rain = 0
KSLS 071225Z 03004KT M00/M02 A3027 RMK A01 T10021016  RH  091%=      5-min Rain = 0
KSLS 071230Z 03005KT M00/M01 A3027 RMK A01 T10021013  RH  093%=      5-min Rain = 0
KSLS 071235Z 03006KT M00/M01 A3026 RMK A01 T10021014  RH  093%=      5-min Rain = 0
KSLS 071240Z 03005KT M00/M01 A3026 RMK A01 T10021014  RH  093%=      5-min Rain = 0
KSLS 071245Z 03007KT M00/M01 A3026 RMK A01 T10021014  RH  092%=      5-min Rain = 0
KSLS 071250Z 04006KT M00/M02 A3026 RMK A01 T10021016  RH  091%=      5-min Rain = 0
KSLS 071255Z 05004KT M00/M02 A3028 RMK A01 T10021017  RH  091%=      5-min Rain = 0
KSLS 071300Z 11001KT M00/M02 A303 RMK A01 T10011016  RH  091%=      5-min Rain = 0
KSLS 071305Z 19000KT 00/02 A3031 RMK A01 T00000-17  RH  089%=      5-min Rain = 0
KSLS 071310Z 20000KT 00/02 A3031 RMK A01 T00000-17  RH  089%=      5-min Rain = 0
KSLS 071315Z 00000KT 00/02 A3031 RMK A01 T00-00-17  RH  089%=      5-min Rain = 0
KSLS 071320Z 22001KT 00/02 A3031 RMK A01 T00-00-17  RH  090%=      5-min Rain = 0
KSLS 071325Z 22001KT 00/M02 A3032 RMK A01 T00011018  RH  088%=      5-min Rain = 0
KSLS 071330Z 23001KT 00/M02 A3032 RMK A01 T00011019  RH  087%=      5-min Rain = 0
KSLS 071335Z 26002KT 00/M02 A3031 RMK A01 T00021015  RH  089%=      5-min Rain = 0
KSLS 071340Z 31001KT 00/M02 A3031 RMK A01 T00011018  RH  088%=      5-min Rain = 0
KSLS 071345Z 06002KT 00/02 A303 RMK A01 T00000-15  RH  090%=      5-min Rain = 0
KSLS 071350Z 05001KT 00/01 A303 RMK A01 T00000-14  RH  092%=      5-min Rain = 0
KSLS 071355Z 03002KT 00/01 A303 RMK A01 T00000-14  RH  091%=      5-min Rain = 0
KSLS 071400Z 35003KT 00/01 A3031 RMK A01 T00000-13  RH  092%=      5-min Rain = 0
KSLS 071405Z 35003KT 00/01 A3031 RMK A01 T00-00-13  RH  092%=      5-min Rain = 0.01
KSLS 071410Z 02003KT 00/01 A303 RMK A01 T00000-13  RH  092%=      5-min Rain = 0
KSLS 071415Z 03004KT 00/M01 A303 RMK A01 T00011012  RH  092%=      5-min Rain = 0
KSLS 071420Z 01004KT 00/01 A303 RMK A01 T00000-12  RH  093%=      5-min Rain = 0
KSLS 071425Z 03003KT 00/01 A303 RMK A01 T00000-12  RH  093%=      5-min Rain = 0
KSLS 071430Z 03004KT 00/M01 A3029 RMK A01 T00011011  RH  093%=      5-min Rain = 0.01
KSLS 071435Z 02003KT 00/M01 A303 RMK A01 T00011011  RH  093%=      5-min Rain = 0.02
KSLS 071440Z 02003KT 00/01 A303 RMK A01 T00000-10  RH  094%=      5-min Rain = 0.02
KSLS 071445Z 01004KT M00/M01 A303 RMK A01 T10011011  RH  094%=      5-min Rain = 0.02
KSLS 071450Z 01004KT M00/M01 A3031 RMK A01 T10021012  RH  094%=      5-min Rain = 0.02
KSLS 071455Z 01004KT M00/M01 A3031 RMK A01 T10021012  RH  094%=      5-min Rain = 0.02
KSLS 071500Z 36004KT M00/M01 A3032 RMK A01 T10021011  RH  095%=      5-min Rain = 0
KSLS 071505Z 01003KT M00/M01 A3032 RMK A01 T10021010  RH  095%=      5-min Rain = 0
KSLS 071510Z 00003KT M00/M01 A3032 RMK A01 T10021011  RH  095%=      5-min Rain = 0
KSLS 071515Z 01004KT M00/M01 A3033 RMK A01 T10011011  RH  094%=      5-min Rain = 0
KSLS 071520Z 02003KT M00/M01 A3033 RMK A01 T10011011  RH  094%=      5-min Rain = 0.01
KSLS 071525Z 01003KT 00/01 A3033 RMK A01 T00-00-10  RH  094%=      5-min Rain = 0
KSLS 071530Z 01002KT 00/01 A3033 RMK A01 T00-00-10  RH  095%=      5-min Rain = 0
KSLS 071535Z 35002KT 00/01 A3034 RMK A01 T00-00-10  RH  094%=      5-min Rain = 0
KSLS 071540Z 00002KT 00/01 A3034 RMK A01 T00-000-9  RH  095%=      5-min Rain = 0
KSLS 071545Z 01003KT 00/01 A3034 RMK A01 T00-00-10  RH  094%=      5-min Rain = 0
KSLS 071550Z 00003KT 00/01 A3034 RMK A01 T00000-10  RH  094%=      5-min Rain = 0
KSLS 071555Z 02003KT 00/01 A3034 RMK A01 T00000-10  RH  094%=      5-min Rain = 0
KSLS 071600Z 02003KT 00/M01 A3034 RMK A01 T00011009  RH  094%=      5-min Rain = 0
KSLS 071605Z 03003KT 00/M01 A3033 RMK A01 T00021008  RH  095%=      5-min Rain = 0
KSLS 071610Z 03003KT 00/M01 A3033 RMK A01 T00021007  RH  095%=      5-min Rain = 0
KSLS 071615Z 02003KT 00/M01 A3033 RMK A01 T00031005  RH  095%=      5-min Rain = 0
KSLS 071620Z 02004KT 00/M01 A3033 RMK A01 T00031006  RH  094%=      5-min Rain = 0
KSLS 071625Z 03005KT 00/M01 A3033 RMK A01 T00041009  RH  092%=      5-min Rain = 0
KSLS 071630Z 04006KT 00/M01 A3033 RMK A01 T00041012  RH  090%=      5-min Rain = 0
KSLS 071635Z 04006KT 01/M01 A3033 RMK A01 T00051012  RH  090%=      5-min Rain = 0
KSLS 071640Z 04005KT 01/M01 A3032 RMK A01 T00051011  RH  090%=      5-min Rain = 0
KSLS 071645Z 05005KT 01/M01 A3032 RMK A01 T00051010  RH  090%=      5-min Rain = 0
KSLS 071650Z 05006KT 01/M01 A3032 RMK A01 T00051010  RH  090%=      5-min Rain = 0
KSLS 071655Z 05005KT 01/M01 A3032 RMK A01 T00051010  RH  091%=      5-min Rain = 0
KSLS 071700Z 06006KT 00/M01 A3032 RMK A01 T00041013  RH  089%=      5-min Rain = 0
KSLS 071705Z 06005KT 01/M01 A3032 RMK A01 T00051011  RH  090%=      5-min Rain = 0
KSLS 071710Z 08004KT 01/M01 A3031 RMK A01 T00061007  RH  092%=      5-min Rain = 0
KSLS 071715Z 08005KT 01/M01 A3032 RMK A01 T00051009  RH  091%=      5-min Rain = 0
KSLS 071720Z 07004KT 01/M01 A3031 RMK A01 T00061008  RH  092%=      5-min Rain = 0
KSLS 071725Z 07005KT 01/M01 A3031 RMK A01 T00051009  RH  091%=      5-min Rain = 0
KSLS 071730Z 08004KT 01/M01 A3031 RMK A01 T00051008  RH  092%=      5-min Rain = 0
KSLS 071735Z 08006KT 01/M01 A3031 RMK A01 T00051009  RH  091%=      5-min Rain = 0
KSLS 071740Z 08006KT 01/M01 A3031 RMK A01 T00061008  RH  091%=      5-min Rain = 0
KSLS 071745Z 08005KT 01/M01 A303 RMK A01 T00061007  RH  092%=      5-min Rain = 0
KSLS 071750Z 08007KT 01/M01 A3029 RMK A01 T00061006  RH  093%=      5-min Rain = 0
KSLS 071755Z 08007KT 01/M01 A3029 RMK A01 T00061006  RH  093%=      5-min Rain = 0
KSLS 071800Z 07005KT 01/M01 A3029 RMK A01 T00061007  RH  092%=      5-min Rain = 0
KSLS 071805Z 07006KT 01/M01 A3029 RMK A01 T00061007  RH  092%=      5-min Rain = 0
KSLS 071810Z 07006KT 01/M01 A3029 RMK A01 T00051007  RH  092%=      5-min Rain = 0
KSLS 071815Z 08006KT 01/M01 A3029 RMK A01 T00051007  RH  092%=      5-min Rain = 0
KSLS 071820Z 07005KT 01/M01 A3029 RMK A01 T00061006  RH  093%=      5-min Rain = 0
KSLS 071825Z 07005KT 01/M01 A3029 RMK A01 T00061006  RH  093%=      5-min Rain = 0
KSLS 071830Z 09006KT 01/M01 A3028 RMK A01 T00061006  RH  093%=      5-min Rain = 0
KSLS 071835Z 08005KT 01/M01 A3028 RMK A01 T00061008  RH  092%=      5-min Rain = 0
KSLS 071840Z 07005KT 01/M01 A3028 RMK A01 T00061006  RH  092%=      5-min Rain = 0
KSLS 071845Z 05005KT 01/M01 A3028 RMK A01 T00061007  RH  092%=      5-min Rain = 0
KSLS 071850Z 06005KT 01/M01 A3027 RMK A01 T00071006  RH  092%=      5-min Rain = 0
KSLS 071855Z 06005KT 01/M01 A3027 RMK A01 T00061006  RH  092%=      5-min Rain = 0
KSLS 071900Z 06006KT 01/M01 A3027 RMK A01 T00061007  RH  092%=      5-min Rain = 0
KSLS 071905Z 06006KT 01/M01 A3026 RMK A01 T00071006  RH  092%=      5-min Rain = 0
KSLS 071910Z 07007KT 01/M01 A3026 RMK A01 T00071007  RH  092%=      5-min Rain = 0
KSLS 071915Z 06006KT 01/M01 A3026 RMK A01 T00081006  RH  092%=      5-min Rain = 0
KSLS 071920Z 05006KT 01/M01 A3026 RMK A01 T00081005  RH  092%=      5-min Rain = 0
KSLS 071925Z 05006KT 01/M00 A3025 RMK A01 T00081004  RH  092%=      5-min Rain = 0
KSLS 071930Z 05006KT 01/M01 A3025 RMK A01 T00081005  RH  092%=      5-min Rain = 0
KSLS 071935Z 04005KT 01/M00 A3025 RMK A01 T00091003  RH  093%=      5-min Rain = 0
KSLS 071940Z 05006KT 01/M00 A3025 RMK A01 T00101002  RH  093%=      5-min Rain = 0
KSLS 071945Z 04007KT 01/M00 A3025 RMK A01 T00091003  RH  093%=      5-min Rain = 0
KSLS 071950Z 03006KT 01/M00 A3025 RMK A01 T00101003  RH  093%=      5-min Rain = 0
KSLS 071955Z 02005KT 01/M00 A3025 RMK A01 T00101001  RH  093%=      5-min Rain = 0
KSLS 072000Z 04007KT 01/M00 A3025 RMK A01 T00101002  RH  093%=      5-min Rain = 0
KSLS 072005Z 04007KT 01/M00 A3025 RMK A01 T00081002  RH  094%=      5-min Rain = 0
KSLS 072010Z 04006KT 01/M00 A3024 RMK A01 T00081002  RH  094%=      5-min Rain = 0
KSLS 072015Z 04007KT 01/M00 A3024 RMK A01 T00091002  RH  093%=      5-min Rain = 0
KSLS 072020Z 04007KT 01/M00 A3024 RMK A01 T00091003  RH  093%=      5-min Rain = 0
KSLS 072025Z 03007KT 01/M00 A3025 RMK A01 T00091003  RH  092%=      5-min Rain = 0
KSLS 072030Z 03008KT 01/M00 A3024 RMK A01 T00091003  RH  093%=      5-min Rain = 0
KSLS 072035Z 02007KT 01/M00 A3024 RMK A01 T00081003  RH  093%=      5-min Rain = 0
KSLS 072040Z 03006KT 01/M00 A3025 RMK A01 T00091002  RH  094%=      5-min Rain = 0
KSLS 072045Z 03007KT 01/M00 A3024 RMK A01 T00081004  RH  093%=      5-min Rain = 0
KSLS 072050Z 02008KT 01/M00 A3024 RMK A01 T00081004  RH  092%=      5-min Rain = 0
KSLS 072055Z 02007KT 01/M00 A3024 RMK A01 T00081004  RH  093%=      5-min Rain = 0
KSLS 072100Z 02008KT 01/M00 A3024 RMK A01 T00071004  RH  093%=      5-min Rain = 0
KSLS 072105Z 02009KT 01/M01 A3023 RMK A01 T00051006  RH  094%=      5-min Rain = 0
KSLS 072110Z 02009KT 00/M01 A3023 RMK A01 T00041007  RH  093%=      5-min Rain = 0
KSLS 072115Z 03008G13KT 01/M01 A3023 RMK A01 T00051007  RH  093%=      5-min Rain = 0
KSLS 072120Z 04009KT 00/M01 A3023 RMK A01 T00031008  RH  093%=      5-min Rain = 0
KSLS 072125Z 03008KT 00/M01 A3023 RMK A01 T00021009  RH  093%=      5-min Rain = 0
KSLS 072130Z 03009KT 00/M01 A3023 RMK A01 T00021009  RH  093%=      5-min Rain = 0
KSLS 072135Z 03008KT 00/M01 A3024 RMK A01 T00011010  RH  093%=      5-min Rain = 0
KSLS 072140Z 03008KT 00/01 A3024 RMK A01 T00000-11  RH  093%=      5-min Rain = 0
KSLS 072145Z 02008KT 00/01 A3024 RMK A01 T00000-12  RH  092%=      5-min Rain = 0
KSLS 072150Z 02008KT 00/01 A3024 RMK A01 T00000-13  RH  092%=      5-min Rain = 0
KSLS 072155Z 02009KT 00/01 A3024 RMK A01 T00-00-14  RH  092%=      5-min Rain = 0
KSLS 072200Z 04009KT 00/01 A3023 RMK A01 T00-00-13  RH  092%=      5-min Rain = 0
KSLS 072205Z 04008KT 00/01 A3023 RMK A01 T00000-13  RH  092%=      5-min Rain = 0
KSLS 072210Z 03009KT 00/01 A3023 RMK A01 T00000-14  RH  091%=      5-min Rain = 0
KSLS 072215Z 02008KT 00/01 A3023 RMK A01 T00000-14  RH  091%=      5-min Rain = 0
KSLS 072220Z 03009KT 00/M01 A3023 RMK A01 T00011014  RH  091%=      5-min Rain = 0
KSLS 072225Z 02008KT 00/M01 A3023 RMK A01 T00011013  RH  091%=      5-min Rain = 0
KSLS 072230Z 01008KT 00/M01 A3024 RMK A01 T00011014  RH  090%=      5-min Rain = 0
KSLS 072235Z 01009KT 00/M01 A3024 RMK A01 T00011014  RH  090%=      5-min Rain = 0
KSLS 072240Z 01009KT 00/M01 A3024 RMK A01 T00021013  RH  091%=      5-min Rain = 0
KSLS 072245Z 02009KT 00/M01 A3024 RMK A01 T00021013  RH  091%=      5-min Rain = 0
KSLS 072250Z 02007KT 00/M01 A3025 RMK A01 T00021012  RH  091%=      5-min Rain = 0
KSLS 072255Z 01007KT 00/M01 A3025 RMK A01 T00021012  RH  092%=      5-min Rain = 0
KSLS 072300Z 02007KT 00/M01 A3025 RMK A01 T00021011  RH  092%=      5-min Rain = 0
KSLS 072305Z 02007KT 00/M01 A3025 RMK A01 T00021010  RH  092%=      5-min Rain = 0
KSLS 072310Z 03007KT 00/M01 A3025 RMK A01 T00021010  RH  093%=      5-min Rain = 0
KSLS 072315Z 03008KT 00/M01 A3025 RMK A01 T00021010  RH  093%=      5-min Rain = 0
KSLS 072320Z 03006KT 00/M01 A3025 RMK A01 T00021010  RH  093%=      5-min Rain = 0
KSLS 072325Z 03006KT 00/M01 A3025 RMK A01 T00031008  RH  093%=      5-min Rain = 0
KSLS 072330Z 03007KT 00/M01 A3024 RMK A01 T00031008  RH  093%=      5-min Rain = 0
KSLS 072335Z 03006KT 00/M01 A3024 RMK A01 T00031007  RH  094%=      5-min Rain = 0
KSLS 072340Z 02007KT 00/M01 A3024 RMK A01 T00031007  RH  094%=      5-min Rain = 0
KSLS 072345Z 03007KT 00/M01 A3024 RMK A01 T00031007  RH  095%=      5-min Rain = 0
KSLS 072350Z 04007KT 00/M01 A3023 RMK A01 T00021007  RH  095%=      5-min Rain = 0
KSLS 072355Z 04008KT 00/M01 A3023 RMK A01 T00021007  RH  095%=      5-min Rain = 0
KSLS 080000Z 04008KT 00/M01 A3023 RMK A01 T00021007  RH  095%=      5-min Rain = 0
KSLS 080005Z 04009KT 00/M01 A3023 RMK A01 T00021006  RH  095%=      5-min Rain = 0
KSLS 080010Z 04007KT 00/M01 A3023 RMK A01 T00031006  RH  095%=      5-min Rain = 0
KSLS 080015Z 04008KT 00/M01 A3023 RMK A01 T00031006  RH  095%=      5-min Rain = 0
KSLS 080020Z 04008KT 00/M01 A3023 RMK A01 T00031006  RH  095%=      5-min Rain = 0
KSLS 080025Z 04007G12KT 00/M01 A3023 RMK A01 T00041005  RH  095%=      5-min Rain = 0
KSLS 080030Z 05008KT 00/M01 A3023 RMK A01 T00041005  RH  095%=      5-min Rain = 0
KSLS 080035Z 04008KT 00/M01 A3023 RMK A01 T00041005  RH  095%=      5-min Rain = 0
KSLS 080040Z 04008KT 00/M01 A3023 RMK A01 T00041005  RH  095%=      5-min Rain = 0
KSLS 080045Z 04008KT 00/M01 A3024 RMK A01 T00041005  RH  095%=      5-min Rain = 0
KSLS 080050Z 04007KT 00/M01 A3025 RMK A01 T00041005  RH  095%=      5-min Rain = 0
KSLS 080055Z 04007KT 01/M00 A3026 RMK A01 T00051004  RH  095%=      5-min Rain = 0
KSLS 080100Z 05007KT 01/M00 A3026 RMK A01 T00051004  RH  095%=      5-min Rain = 0
KSLS 080105Z 05006KT 00/M00 A3026 RMK A01 T00041004  RH  095%=      5-min Rain = 0
KSLS 080110Z 05006KT 01/M00 A3027 RMK A01 T00051003  RH  096%=      5-min Rain = 0
KSLS 080115Z 05006KT 00/M00 A3027 RMK A01 T00041003  RH  096%=      5-min Rain = 0
KSLS 080120Z 04006KT 01/M00 A3027 RMK A01 T00051002  RH  096%=      5-min Rain = 0.01
KSLS 080125Z 03006KT 01/M00 A3027 RMK A01 T00051002  RH  096%=      5-min Rain = 0
KSLS 080130Z 03007KT 00/M00 A3027 RMK A01 T00041002  RH  097%=      5-min Rain = 0
KSLS 080135Z 04007KT 00/M00 A3027 RMK A01 T00041003  RH  097%=      5-min Rain = 0
KSLS 080140Z 05007KT 00/M00 A3027 RMK A01 T00031003  RH  097%=      5-min Rain = 0
KSLS 080145Z 05006KT 00/M00 A3027 RMK A01 T00031003  RH  097%=      5-min Rain = 0
KSLS 080150Z 04006KT 00/M00 A3027 RMK A01 T00031003  RH  097%=      5-min Rain = 0
KSLS 080155Z 04007KT 00/M00 A3026 RMK A01 T00031003  RH  097%=      5-min Rain = 0.01
KSLS 080200Z 04009KT 00/M00 A3026 RMK A01 T00021004  RH  097%=      5-min Rain = 0
KSLS 080205Z 05007KT 00/M00 A3027 RMK A01 T00021004  RH  097%=      5-min Rain = 0
KSLS 080210Z 05007KT 00/M01 A3027 RMK A01 T00011005  RH  097%=      5-min Rain = 0
KSLS 080215Z 05006KT 00/M01 A3028 RMK A01 T00011005  RH  097%=      5-min Rain = 0
KSLS 080220Z 06005KT 00/M01 A3028 RMK A01 T00011005  RH  097%=      5-min Rain = 0
KSLS 080225Z 05004KT 00/M01 A3028 RMK A01 T00011005  RH  097%=      5-min Rain = 0.01
KSLS 080230Z 06004KT 00/M00 A3028 RMK A01 T00011004  RH  097%=      5-min Rain = 0
KSLS 080235Z 04005KT 00/M00 A3028 RMK A01 T00011004  RH  098%=      5-min Rain = 0
KSLS 080240Z 05005KT 00/M00 A3028 RMK A01 T00011003  RH  098%=      5-min Rain = 0
KSLS 080245Z 04007KT 00/M00 A3029 RMK A01 T00011004  RH  098%=      5-min Rain = 0
KSLS 080250Z 05006KT 00/M00 A3029 RMK A01 T00011004  RH  097%=      5-min Rain = 0.01
KSLS 080255Z 04005KT 00/M00 A3028 RMK A01 T00011004  RH  098%=      5-min Rain = 0.01
KSLS 080300Z 03005KT 00/M00 A3028 RMK A01 T00011004  RH  098%=      5-min Rain = 0.01
KSLS 080305Z 01005KT 00/M00 A3028 RMK A01 T00011004  RH  098%=      5-min Rain = 0.01
KSLS 080310Z 02005KT 00/01 A3028 RMK A01 T000000-5  RH  098%=      5-min Rain = 0.01
KSLS 080315Z 03006KT 00/01 A3028 RMK A01 T00-000-5  RH  098%=      5-min Rain = 0
KSLS 080320Z 03006KT 00/01 A3028 RMK A01 T00-000-5  RH  098%=      5-min Rain = 0.01
KSLS 080325Z 02005KT 00/01 A3028 RMK A01 T00-000-5  RH  098%=      5-min Rain = 0
KSLS 080330Z 02004KT 00/01 A3029 RMK A01 T00-000-5  RH  098%=      5-min Rain = 0
KSLS 080335Z 02004KT 00/00 A3029 RMK A01 T000000-4  RH  098%=      5-min Rain = 0.01
KSLS 080340Z 03005KT 00/01 A3028 RMK A01 T00-000-5  RH  098%=      5-min Rain = 0
KSLS 080345Z 03005KT 00/01 A3028 RMK A01 T00-000-5  RH  098%=      5-min Rain = 0
KSLS 080350Z 03006KT M00/M01 A3028 RMK A01 T10011005  RH  098%=      5-min Rain = 0
KSLS 080355Z 03007KT M00/M01 A3028 RMK A01 T10011006  RH  098%=      5-min Rain = 0
KSLS 080400Z 03007KT M00/M01 A3028 RMK A01 T10011006  RH  097%=      5-min Rain = 0
KSLS 080405Z 04008KT M00/M01 A3028 RMK A01 T10011007  RH  097%=      5-min Rain = 0
KSLS 080410Z 04007KT M00/M01 A3028 RMK A01 T10011007  RH  097%=      5-min Rain = 0
KSLS 080415Z 04007KT M00/M01 A3027 RMK A01 T10011007  RH  097%=      5-min Rain = 0
KSLS 080420Z 04007KT M00/M01 A3027 RMK A01 T10011007  RH  097%=      5-min Rain = 0
KSLS 080425Z 04007KT M00/M01 A3027 RMK A01 T10011007  RH  097%=      5-min Rain = 0
KSLS 080430Z 04007KT M00/M01 A3027 RMK A01 T10011007  RH  097%=      5-min Rain = 0
KSLS 080435Z 04007KT M00/M01 A3027 RMK A01 T10011007  RH  097%=      5-min Rain = 0
KSLS 080440Z 03006KT M00/M01 A3028 RMK A01 T10011007  RH  097%=      5-min Rain = 0.01
KSLS 080445Z 03007KT M00/M01 A3028 RMK A01 T10011007  RH  097%=      5-min Rain = 0
KSLS 080450Z 03006KT M00/M01 A3028 RMK A01 T10011007  RH  097%=      5-min Rain = 0
KSLS 080455Z 03007KT M00/M01 A3028 RMK A01 T10021007  RH  097%=      5-min Rain = 0
KSLS 080500Z 03008KT M00/M01 A3027 RMK A01 T10021008  RH  097%=      5-min Rain = 0
KSLS 080505Z 03009KT M00/M01 A3027 RMK A01 T10031009  RH  097%=      5-min Rain = 0
KSLS 080510Z 03008KT M00/M01 A3026 RMK A01 T10031009  RH  097%=      5-min Rain = 0
KSLS 080515Z 02006KT M00/M01 A3026 RMK A01 T10031008  RH  097%=      5-min Rain = 0
KSLS 080520Z 02006KT M00/M01 A3027 RMK A01 T10031008  RH  098%=      5-min Rain = 0
KSLS 080525Z 00005KT M00/M01 A3027 RMK A01 T10041008  RH  098%=      5-min Rain = 0
KSLS 080530Z 01006KT M00/M01 A3027 RMK A01 T10031008  RH  098%=      5-min Rain = 0
KSLS 080535Z 02006KT M00/M01 A3027 RMK A01 T10041008  RH  098%=      5-min Rain = 0
KSLS 080540Z 01006KT M00/M01 A3027 RMK A01 T10031008  RH  098%=      5-min Rain = 0
KSLS 080545Z 02007KT M00/M01 A3027 RMK A01 T10041009  RH  098%=      5-min Rain = 0.01
KSLS 080550Z 02007KT M00/M01 A3027 RMK A01 T10041009  RH  098%=      5-min Rain = 0
KSLS 080555Z 02006KT M00/M01 A3026 RMK A01 T10031008  RH  098%=      5-min Rain = 0

Page generated in 0.0154 seconds.